Manhattan Regional Airport
KMHK : now visible

Airfield :











YOU CAN JOIN US ON...

 
LOGIN :

Register | Disclaimer

   EN    FR    IT 

 









Legend :    VFR   Marginal VFR   IFR   Intensive IFR   Very Intensive IFR
Visi :
Ceiling :
>= 8 km
>= 3000ft
5 to 8 km
1000 to 3000 ft
1500m to 5 km
500 to 1000 ft
800 to 1500m
200 to 500 ft
< 800m
< 200 ft
Symbols :   Thunderstorms  Fog  Heavy snow  Heavy precipitations  Wind > 20 kt







- Airport Elevation : 1057 ft
- IATA code : MHK


KMHK - Manhattan Regional

CURRENT METAR :
  • 162252Z 17007G18KT 10SM CLR 32/19 A2997 RMK AO2 SLP137 T03220194

EXPIRED METARs :
  • 162152Z 17011KT 10SM CLR 33/20 A2997 RMK AO2 SLP137 T03280200
  • 162052Z 18010G17KT 10SM CLR 34/19 A2998 RMK AO2 SLP140 T03390189 56021

TAF KMHK
Valid from the 16 at 18:00 until the 17 at 18:00 UTC


161734Z 1618/1718 20012KT P6SM SCT250
FM170000 16009KT P6SM SCT250
FM171500 19011G19KT P6SM FEW250
No reported NOTAMs for that airfield.



MET'MAP, your aeronautical weather chart ! - Copyright ORBIFLY December 2007 - Disclaimer

ORBIFLY MET'MAP TEAM :

Programming & Development : Alexandra Zaïnal
Concept & Development : Baudouin d'Aumeries
Co-Development & Prog : Marc-Olivier Méhu
Technical & hardware support : Manuel Goepfert

Contact : metmap@orbifly.com




SOURCES & CREDITS :

   NOAA       Earth
Advisory